sensor_id;sensor_type;location;lat;lon;timestamp;temperature;humidity
2409;DHT22;8463;48.094;7.970;2024-01-27T00:01:17;6.00;1.00
2409;DHT22;8463;48.094;7.970;2024-01-27T00:03:42;6.00;1.00
2409;DHT22;8463;48.094;7.970;2024-01-27T00:06:08;6.00;1.00
2409;DHT22;8463;48.094;7.970;2024-01-27T00:08:34;6.00;1.00
2409;DHT22;8463;48.094;7.970;2024-01-27T00:10:59;6.00;1.00
2409;DHT22;8463;48.094;7.970;2024-01-27T00:13:25;6.00;1.00
2409;DHT22;8463;48.094;7.970;2024-01-27T00:15:51;5.90;1.00
2409;DHT22;8463;48.094;7.970;2024-01-27T00:18:17;5.90;1.00
2409;DHT22;8463;48.094;7.970;2024-01-27T00:20:45;5.90;1.00
2409;DHT22;8463;48.094;7.970;2024-01-27T00:23:10;5.90;1.00
2409;DHT22;8463;48.094;7.970;2024-01-27T00:25:36;5.80;1.00
2409;DHT22;8463;48.094;7.970;2024-01-27T00:28:02;5.70;1.00
2409;DHT22;8463;48.094;7.970;2024-01-27T00:30:28;5.70;1.00
2409;DHT22;8463;48.094;7.970;2024-01-27T00:32:53;5.60;1.00
2409;DHT22;8463;48.094;7.970;2024-01-27T00:35:19;5.60;1.00
2409;DHT22;8463;48.094;7.970;2024-01-27T00:37:45;5.60;1.00
2409;DHT22;8463;48.094;7.970;2024-01-27T00:40:11;5.60;1.00
2409;DHT22;8463;48.094;7.970;2024-01-27T00:42:40;5.60;1.00
2409;DHT22;8463;48.094;7.970;2024-01-27T00:45:06;5.60;1.00
2409;DHT22;8463;48.094;7.970;2024-01-27T00:47:32;5.60;1.00
2409;DHT22;8463;48.094;7.970;2024-01-27T00:49:58;5.60;1.00
2409;DHT22;8463;48.094;7.970;2024-01-27T00:52:23;5.50;1.00
2409;DHT22;8463;48.094;7.970;2024-01-27T00:54:49;5.50;1.00
2409;DHT22;8463;48.094;7.970;2024-01-27T00:57:15;5.50;1.00
2409;DHT22;8463;48.094;7.970;2024-01-27T00:59:41;5.50;1.00
2409;DHT22;8463;48.094;7.970;2024-01-27T01:02:07;5.40;1.00
2409;DHT22;8463;48.094;7.970;2024-01-27T01:04:32;5.30;1.00
2409;DHT22;8463;48.094;7.970;2024-01-27T01:06:59;5.20;1.00
2409;DHT22;8463;48.094;7.970;2024-01-27T01:09:25;5.20;1.00
2409;DHT22;8463;48.094;7.970;2024-01-27T01:11:50;5.20;1.00
2409;DHT22;8463;48.094;7.970;2024-01-27T01:14:16;5.10;1.00
2409;DHT22;8463;48.094;7.970;2024-01-27T01:16:44;5.10;1.00
2409;DHT22;8463;48.094;7.970;2024-01-27T01:19:10;5.10;1.00
2409;DHT22;8463;48.094;7.970;2024-01-27T01:21:35;5.10;1.00
2409;DHT22;8463;48.094;7.970;2024-01-27T01:24:03;5.00;1.00
2409;DHT22;8463;48.094;7.970;2024-01-27T01:26:28;5.00;1.00
2409;DHT22;8463;48.094;7.970;2024-01-27T01:28:54;5.00;1.00
2409;DHT22;8463;48.094;7.970;2024-01-27T01:31:20;5.00;1.00
2409;DHT22;8463;48.094;7.970;2024-01-27T01:33:45;4.90;1.00
2409;DHT22;8463;48.094;7.970;2024-01-27T01:36:11;4.90;1.00
2409;DHT22;8463;48.094;7.970;2024-01-27T01:38:37;4.70;1.00
2409;DHT22;8463;48.094;7.970;2024-01-27T01:41:02;4.50;1.00
2409;DHT22;8463;48.094;7.970;2024-01-27T01:43:28;4.50;1.00
2409;DHT22;8463;48.094;7.970;2024-01-27T01:45:54;4.40;1.00
2409;DHT22;8463;48.094;7.970;2024-01-27T01:48:20;4.40;1.00
2409;DHT22;8463;48.094;7.970;2024-01-27T01:50:46;4.40;1.00
2409;DHT22;8463;48.094;7.970;2024-01-27T01:53:13;4.40;1.00
2409;DHT22;8463;48.094;7.970;2024-01-27T01:55:39;4.40;1.00
2409;DHT22;8463;48.094;7.970;2024-01-27T01:58:05;4.30;1.00
2409;DHT22;8463;48.094;7.970;2024-01-27T02:00:32;4.20;1.00
2409;DHT22;8463;48.094;7.970;2024-01-27T02:02:58;4.20;1.00
2409;DHT22;8463;48.094;7.970;2024-01-27T02:05:23;4.10;1.00
2409;DHT22;8463;48.094;7.970;2024-01-27T02:07:51;4.00;1.00
2409;DHT22;8463;48.094;7.970;2024-01-27T02:10:21;4.00;1.00
2409;DHT22;8463;48.094;7.970;2024-01-27T02:12:47;4.00;1.00
2409;DHT22;8463;48.094;7.970;2024-01-27T02:15:13;4.10;1.00
2409;DHT22;8463;48.094;7.970;2024-01-27T02:17:42;4.00;1.00
2409;DHT22;8463;48.094;7.970;2024-01-27T02:20:08;3.90;1.00
2409;DHT22;8463;48.094;7.970;2024-01-27T02:22:34;3.90;1.00
2409;DHT22;8463;48.094;7.970;2024-01-27T02:25:00;3.80;1.00
2409;DHT22;8463;48.094;7.970;2024-01-27T02:27:26;3.80;1.00
2409;DHT22;8463;48.094;7.970;2024-01-27T02:29:52;3.80;1.00
2409;DHT22;8463;48.094;7.970;2024-01-27T02:32:17;3.70;1.00
2409;DHT22;8463;48.094;7.970;2024-01-27T02:34:43;3.60;1.00
2409;DHT22;8463;48.094;7.970;2024-01-27T02:37:09;3.60;1.00
2409;DHT22;8463;48.094;7.970;2024-01-27T02:39:35;3.60;1.00
2409;DHT22;8463;48.094;7.970;2024-01-27T02:42:01;3.60;1.00
2409;DHT22;8463;48.094;7.970;2024-01-27T02:44:26;3.60;1.00
2409;DHT22;8463;48.094;7.970;2024-01-27T02:46:52;3.60;1.00
2409;DHT22;8463;48.094;7.970;2024-01-27T02:49:18;3.60;1.00
2409;DHT22;8463;48.094;7.970;2024-01-27T02:51:43;3.50;1.00
2409;DHT22;8463;48.094;7.970;2024-01-27T02:54:09;3.50;1.00
2409;DHT22;8463;48.094;7.970;2024-01-27T02:56:35;3.40;1.00
2409;DHT22;8463;48.094;7.970;2024-01-27T02:59:01;3.40;1.00
2409;DHT22;8463;48.094;7.970;2024-01-27T03:01:26;3.40;1.00
2409;DHT22;8463;48.094;7.970;2024-01-27T03:03:52;3.40;1.00
2409;DHT22;8463;48.094;7.970;2024-01-27T03:06:18;3.30;1.00
2409;DHT22;8463;48.094;7.970;2024-01-27T03:08:43;3.20;1.00
2409;DHT22;8463;48.094;7.970;2024-01-27T03:11:11;3.20;1.00
2409;DHT22;8463;48.094;7.970;2024-01-27T03:13:40;3.20;1.00
2409;DHT22;8463;48.094;7.970;2024-01-27T03:16:10;3.20;1.00
2409;DHT22;8463;48.094;7.970;2024-01-27T03:18:36;3.20;1.00
2409;DHT22;8463;48.094;7.970;2024-01-27T03:21:03;3.20;1.00
2409;DHT22;8463;48.094;7.970;2024-01-27T03:23:28;3.20;1.00
2409;DHT22;8463;48.094;7.970;2024-01-27T03:25:54;3.20;1.00
2409;DHT22;8463;48.094;7.970;2024-01-27T03:28:20;3.20;1.00
2409;DHT22;8463;48.094;7.970;2024-01-27T03:30:49;3.20;1.00
2409;DHT22;8463;48.094;7.970;2024-01-27T03:33:14;3.20;1.00
2409;DHT22;8463;48.094;7.970;2024-01-27T03:35:40;3.10;1.00
2409;DHT22;8463;48.094;7.970;2024-01-27T03:38:05;3.20;1.00
2409;DHT22;8463;48.094;7.970;2024-01-27T03:40:31;3.20;1.00
2409;DHT22;8463;48.094;7.970;2024-01-27T03:42:57;3.20;1.00
2409;DHT22;8463;48.094;7.970;2024-01-27T03:45:23;3.30;1.00
2409;DHT22;8463;48.094;7.970;2024-01-27T03:47:48;3.30;1.00
2409;DHT22;8463;48.094;7.970;2024-01-27T03:50:14;3.10;1.00
2409;DHT22;8463;48.094;7.970;2024-01-27T03:52:40;3.10;1.00
2409;DHT22;8463;48.094;7.970;2024-01-27T03:55:06;3.00;1.00
2409;DHT22;8463;48.094;7.970;2024-01-27T03:57:32;3.00;1.00
2409;DHT22;8463;48.094;7.970;2024-01-27T04:00:00;3.00;1.00
2409;DHT22;8463;48.094;7.970;2024-01-27T04:02:26;3.00;1.00
2409;DHT22;8463;48.094;7.970;2024-01-27T04:04:51;3.00;1.00
2409;DHT22;8463;48.094;7.970;2024-01-27T04:07:17;3.00;1.00
2409;DHT22;8463;48.094;7.970;2024-01-27T04:09:43;2.90;1.00
2409;DHT22;8463;48.094;7.970;2024-01-27T04:12:08;2.80;1.00
2409;DHT22;8463;48.094;7.970;2024-01-27T04:14:34;2.90;1.00
2409;DHT22;8463;48.094;7.970;2024-01-27T04:16:59;2.80;1.00
2409;DHT22;8463;48.094;7.970;2024-01-27T04:19:25;2.80;1.00
2409;DHT22;8463;48.094;7.970;2024-01-27T04:21:51;2.90;1.00
2409;DHT22;8463;48.094;7.970;2024-01-27T04:24:16;2.80;1.00
2409;DHT22;8463;48.094;7.970;2024-01-27T04:26:42;2.90;1.00
2409;DHT22;8463;48.094;7.970;2024-01-27T04:29:08;2.90;1.00
2409;DHT22;8463;48.094;7.970;2024-01-27T04:31:38;2.80;1.00
2409;DHT22;8463;48.094;7.970;2024-01-27T04:34:04;2.80;1.00
2409;DHT22;8463;48.094;7.970;2024-01-27T04:36:29;2.80;1.00
2409;DHT22;8463;48.094;7.970;2024-01-27T04:38:55;2.70;1.00
2409;DHT22;8463;48.094;7.970;2024-01-27T04:41:21;2.80;1.00
2409;DHT22;8463;48.094;7.970;2024-01-27T04:43:46;2.70;1.00
2409;DHT22;8463;48.094;7.970;2024-01-27T04:46:12;2.70;1.00
2409;DHT22;8463;48.094;7.970;2024-01-27T04:48:38;2.60;1.00
2409;DHT22;8463;48.094;7.970;2024-01-27T04:51:03;2.60;1.00
2409;DHT22;8463;48.094;7.970;2024-01-27T04:53:29;2.50;1.00
2409;DHT22;8463;48.094;7.970;2024-01-27T04:55:55;2.50;1.00
2409;DHT22;8463;48.094;7.970;2024-01-27T04:58:20;2.50;1.00
2409;DHT22;8463;48.094;7.970;2024-01-27T05:00:46;2.40;1.00
2409;DHT22;8463;48.094;7.970;2024-01-27T05:03:12;2.40;1.00
2409;DHT22;8463;48.094;7.970;2024-01-27T05:05:43;2.40;1.00
2409;DHT22;8463;48.094;7.970;2024-01-27T05:08:09;2.40;1.00
2409;DHT22;8463;48.094;7.970;2024-01-27T05:10:37;2.40;1.00
2409;DHT22;8463;48.094;7.970;2024-01-27T05:13:03;2.40;1.00
2409;DHT22;8463;48.094;7.970;2024-01-27T05:15:29;2.40;1.00
2409;DHT22;8463;48.094;7.970;2024-01-27T05:17:55;2.30;1.00
2409;DHT22;8463;48.094;7.970;2024-01-27T05:20:23;2.30;1.00
2409;DHT22;8463;48.094;7.970;2024-01-27T05:22:48;2.30;1.00
2409;DHT22;8463;48.094;7.970;2024-01-27T05:25:14;2.30;1.00
2409;DHT22;8463;48.094;7.970;2024-01-27T05:27:42;2.30;1.00
2409;DHT22;8463;48.094;7.970;2024-01-27T05:30:08;2.30;1.00
2409;DHT22;8463;48.094;7.970;2024-01-27T05:32:34;2.30;1.00
2409;DHT22;8463;48.094;7.970;2024-01-27T05:34:59;2.30;1.00
2409;DHT22;8463;48.094;7.970;2024-01-27T05:37:25;2.30;1.00
2409;DHT22;8463;48.094;7.970;2024-01-27T05:39:51;2.20;1.00
2409;DHT22;8463;48.094;7.970;2024-01-27T05:42:16;2.20;1.00
2409;DHT22;8463;48.094;7.970;2024-01-27T05:44:42;2.10;1.00
2409;DHT22;8463;48.094;7.970;2024-01-27T05:47:08;2.10;1.00
2409;DHT22;8463;48.094;7.970;2024-01-27T05:49:36;2.10;1.00
2409;DHT22;8463;48.094;7.970;2024-01-27T05:52:02;2.10;1.00
2409;DHT22;8463;48.094;7.970;2024-01-27T05:54:28;2.10;1.00
2409;DHT22;8463;48.094;7.970;2024-01-27T05:56:53;2.10;1.00
2409;DHT22;8463;48.094;7.970;2024-01-27T05:59:21;2.10;1.00
2409;DHT22;8463;48.094;7.970;2024-01-27T06:01:47;2.20;1.00
2409;DHT22;8463;48.094;7.970;2024-01-27T06:04:13;2.20;1.00
2409;DHT22;8463;48.094;7.970;2024-01-27T06:06:39;2.20;1.00
2409;DHT22;8463;48.094;7.970;2024-01-27T06:09:05;2.20;1.00
2409;DHT22;8463;48.094;7.970;2024-01-27T06:11:30;2.30;1.00
2409;DHT22;8463;48.094;7.970;2024-01-27T06:13:56;2.30;1.00
2409;DHT22;8463;48.094;7.970;2024-01-27T06:16:23;2.30;1.00
2409;DHT22;8463;48.094;7.970;2024-01-27T06:18:49;2.20;1.00
2409;DHT22;8463;48.094;7.970;2024-01-27T06:21:15;2.20;1.00
2409;DHT22;8463;48.094;7.970;2024-01-27T06:23:40;2.20;1.00
2409;DHT22;8463;48.094;7.970;2024-01-27T06:26:06;2.20;1.00
2409;DHT22;8463;48.094;7.970;2024-01-27T06:28:32;2.20;1.00
2409;DHT22;8463;48.094;7.970;2024-01-27T06:31:00;2.10;1.00
2409;DHT22;8463;48.094;7.970;2024-01-27T06:33:25;2.00;1.00
2409;DHT22;8463;48.094;7.970;2024-01-27T06:35:51;2.00;1.00
2409;DHT22;8463;48.094;7.970;2024-01-27T06:38:17;2.00;1.00
2409;DHT22;8463;48.094;7.970;2024-01-27T06:40:42;2.00;1.00
2409;DHT22;8463;48.094;7.970;2024-01-27T06:43:11;2.10;1.00
2409;DHT22;8463;48.094;7.970;2024-01-27T06:45:40;2.00;1.00
2409;DHT22;8463;48.094;7.970;2024-01-27T06:48:06;2.10;1.00
2409;DHT22;8463;48.094;7.970;2024-01-27T06:50:32;2.00;1.00
2409;DHT22;8463;48.094;7.970;2024-01-27T06:52:58;2.00;1.00
2409;DHT22;8463;48.094;7.970;2024-01-27T06:55:26;2.00;1.00
2409;DHT22;8463;48.094;7.970;2024-01-27T06:57:52;2.00;1.00
2409;DHT22;8463;48.094;7.970;2024-01-27T07:00:19;1.90;1.00
2409;DHT22;8463;48.094;7.970;2024-01-27T07:02:45;1.80;1.00
2409;DHT22;8463;48.094;7.970;2024-01-27T07:05:11;1.70;1.00
2409;DHT22;8463;48.094;7.970;2024-01-27T07:07:39;1.70;1.00
2409;DHT22;8463;48.094;7.970;2024-01-27T07:10:06;1.70;1.00
2409;DHT22;8463;48.094;7.970;2024-01-27T07:12:35;1.70;1.00
2409;DHT22;8463;48.094;7.970;2024-01-27T07:15:02;1.70;1.00
2409;DHT22;8463;48.094;7.970;2024-01-27T07:17:30;1.70;1.00
2409;DHT22;8463;48.094;7.970;2024-01-27T07:19:56;1.70;1.00
2409;DHT22;8463;48.094;7.970;2024-01-27T07:22:22;1.80;1.00
2409;DHT22;8463;48.094;7.970;2024-01-27T07:24:49;1.80;1.00
2409;DHT22;8463;48.094;7.970;2024-01-27T07:27:17;1.80;1.00
2409;DHT22;8463;48.094;7.970;2024-01-27T07:29:45;1.80;1.00
2409;DHT22;8463;48.094;7.970;2024-01-27T07:32:11;1.80;1.00
2409;DHT22;8463;48.094;7.970;2024-01-27T07:34:40;1.80;1.00
2409;DHT22;8463;48.094;7.970;2024-01-27T07:37:09;1.90;1.00
2409;DHT22;8463;48.094;7.970;2024-01-27T07:39:34;2.00;1.00
2409;DHT22;8463;48.094;7.970;2024-01-27T07:42:00;2.00;1.00
2409;DHT22;8463;48.094;7.970;2024-01-27T07:44:27;2.00;1.00
2409;DHT22;8463;48.094;7.970;2024-01-27T07:46:52;1.90;1.00
2409;DHT22;8463;48.094;7.970;2024-01-27T07:49:18;1.90;1.00
2409;DHT22;8463;48.094;7.970;2024-01-27T07:51:44;1.90;1.00
2409;DHT22;8463;48.094;7.970;2024-01-27T07:54:10;1.90;1.00
2409;DHT22;8463;48.094;7.970;2024-01-27T07:56:37;2.00;1.00
2409;DHT22;8463;48.094;7.970;2024-01-27T07:59:03;2.00;1.00
2409;DHT22;8463;48.094;7.970;2024-01-27T08:01:29;2.10;1.00
2409;DHT22;8463;48.094;7.970;2024-01-27T08:03:57;2.10;1.00
2409;DHT22;8463;48.094;7.970;2024-01-27T08:06:28;2.10;1.00
2409;DHT22;8463;48.094;7.970;2024-01-27T08:08:55;2.10;1.00
2409;DHT22;8463;48.094;7.970;2024-01-27T08:11:21;2.10;1.00
2409;DHT22;8463;48.094;7.970;2024-01-27T08:13:46;2.10;1.00
2409;DHT22;8463;48.094;7.970;2024-01-27T08:16:12;2.50;1.00
2409;DHT22;8463;48.094;7.970;2024-01-27T08:18:39;2.60;1.00
2409;DHT22;8463;48.094;7.970;2024-01-27T08:21:08;2.50;1.00
2409;DHT22;8463;48.094;7.970;2024-01-27T08:23:34;2.40;1.00
2409;DHT22;8463;48.094;7.970;2024-01-27T08:25:59;2.30;1.00
2409;DHT22;8463;48.094;7.970;2024-01-27T08:28:25;2.20;1.00
2409;DHT22;8463;48.094;7.970;2024-01-27T08:30:51;2.20;1.00
2409;DHT22;8463;48.094;7.970;2024-01-27T08:33:17;2.20;1.00
2409;DHT22;8463;48.094;7.970;2024-01-27T08:35:43;2.30;1.00
2409;DHT22;8463;48.094;7.970;2024-01-27T08:38:08;2.40;1.00
2409;DHT22;8463;48.094;7.970;2024-01-27T08:40:35;2.50;1.00
2409;DHT22;8463;48.094;7.970;2024-01-27T08:43:01;2.60;1.00
2409;DHT22;8463;48.094;7.970;2024-01-27T08:45:27;2.70;1.00
2409;DHT22;8463;48.094;7.970;2024-01-27T08:47:53;2.80;1.00
2409;DHT22;8463;48.094;7.970;2024-01-27T08:50:19;2.90;1.00
2409;DHT22;8463;48.094;7.970;2024-01-27T08:52:44;3.00;1.00
2409;DHT22;8463;48.094;7.970;2024-01-27T08:55:11;3.10;1.00
2409;DHT22;8463;48.094;7.970;2024-01-27T08:57:37;3.10;1.00
2409;DHT22;8463;48.094;7.970;2024-01-27T09:00:03;3.20;1.00
2409;DHT22;8463;48.094;7.970;2024-01-27T09:02:29;3.30;1.00
2409;DHT22;8463;48.094;7.970;2024-01-27T09:04:55;3.30;1.00
2409;DHT22;8463;48.094;7.970;2024-01-27T09:07:21;3.30;1.00
2409;DHT22;8463;48.094;7.970;2024-01-27T09:09:47;3.30;1.00
2409;DHT22;8463;48.094;7.970;2024-01-27T09:12:12;3.50;1.00
2409;DHT22;8463;48.094;7.970;2024-01-27T09:14:38;3.60;1.00
2409;DHT22;8463;48.094;7.970;2024-01-27T09:17:04;3.70;1.00
2409;DHT22;8463;48.094;7.970;2024-01-27T09:19:30;3.80;1.00
2409;DHT22;8463;48.094;7.970;2024-01-27T09:21:55;4.00;1.00
2409;DHT22;8463;48.094;7.970;2024-01-27T09:24:21;4.10;1.00
2409;DHT22;8463;48.094;7.970;2024-01-27T09:26:46;4.20;1.00
2409;DHT22;8463;48.094;7.970;2024-01-27T09:29:12;4.40;1.00
2409;DHT22;8463;48.094;7.970;2024-01-27T09:31:40;4.50;1.00
2409;DHT22;8463;48.094;7.970;2024-01-27T09:34:05;4.70;1.00
2409;DHT22;8463;48.094;7.970;2024-01-27T09:36:31;4.80;1.00
2409;DHT22;8463;48.094;7.970;2024-01-27T09:38:57;4.80;1.00
2409;DHT22;8463;48.094;7.970;2024-01-27T09:41:31;4.80;1.00
2409;DHT22;8463;48.094;7.970;2024-01-27T09:44:02;4.90;1.00
2409;DHT22;8463;48.094;7.970;2024-01-27T09:46:30;5.00;1.00
2409;DHT22;8463;48.094;7.970;2024-01-27T09:48:58;5.10;1.00
2409;DHT22;8463;48.094;7.970;2024-01-27T09:51:27;5.10;1.00
2409;DHT22;8463;48.094;7.970;2024-01-27T09:53:53;5.70;1.00
2409;DHT22;8463;48.094;7.970;2024-01-27T09:56:19;6.50;1.00
2409;DHT22;8463;48.094;7.970;2024-01-27T09:58:45;6.70;1.00
2409;DHT22;8463;48.094;7.970;2024-01-27T10:01:16;6.50;1.00
2409;DHT22;8463;48.094;7.970;2024-01-27T10:03:43;6.30;1.00
2409;DHT22;8463;48.094;7.970;2024-01-27T10:06:09;6.20;1.00
2409;DHT22;8463;48.094;7.970;2024-01-27T10:08:35;6.20;1.00
2409;DHT22;8463;48.094;7.970;2024-01-27T10:11:07;6.20;1.00
2409;DHT22;8463;48.094;7.970;2024-01-27T10:13:33;6.30;1.00
2409;DHT22;8463;48.094;7.970;2024-01-27T10:16:06;6.50;1.00
2409;DHT22;8463;48.094;7.970;2024-01-27T10:18:33;6.60;1.00
2409;DHT22;8463;48.094;7.970;2024-01-27T10:21:00;6.80;1.00
2409;DHT22;8463;48.094;7.970;2024-01-27T10:23:26;7.00;1.00
2409;DHT22;8463;48.094;7.970;2024-01-27T10:25:53;7.10;1.00
2409;DHT22;8463;48.094;7.970;2024-01-27T10:28:19;7.30;1.00
2409;DHT22;8463;48.094;7.970;2024-01-27T10:30:45;7.40;1.00
2409;DHT22;8463;48.094;7.970;2024-01-27T10:33:12;7.50;1.00
2409;DHT22;8463;48.094;7.970;2024-01-27T10:35:45;7.70;1.00
2409;DHT22;8463;48.094;7.970;2024-01-27T10:38:11;7.80;1.00
2409;DHT22;8463;48.094;7.970;2024-01-27T10:40:39;7.90;1.00
2409;DHT22;8463;48.094;7.970;2024-01-27T10:43:06;7.90;1.00
2409;DHT22;8463;48.094;7.970;2024-01-27T10:45:39;8.10;1.00
2409;DHT22;8463;48.094;7.970;2024-01-27T10:48:07;8.20;1.00
2409;DHT22;8463;48.094;7.970;2024-01-27T10:50:35;8.10;1.00
2409;DHT22;8463;48.094;7.970;2024-01-27T10:53:03;8.20;1.00
2409;DHT22;8463;48.094;7.970;2024-01-27T10:55:30;8.30;1.00
2409;DHT22;8463;48.094;7.970;2024-01-27T10:57:58;8.50;1.00
2409;DHT22;8463;48.094;7.970;2024-01-27T11:00:28;8.60;1.00
2409;DHT22;8463;48.094;7.970;2024-01-27T11:03:01;8.70;1.00
2409;DHT22;8463;48.094;7.970;2024-01-27T11:05:28;8.60;1.00
2409;DHT22;8463;48.094;7.970;2024-01-27T11:07:56;8.70;1.00
2409;DHT22;8463;48.094;7.970;2024-01-27T11:10:22;8.90;1.00
2409;DHT22;8463;48.094;7.970;2024-01-27T11:12:49;9.00;1.00
2409;DHT22;8463;48.094;7.970;2024-01-27T11:15:16;9.10;1.00
2409;DHT22;8463;48.094;7.970;2024-01-27T11:17:42;9.00;1.00
2409;DHT22;8463;48.094;7.970;2024-01-27T11:20:08;9.00;1.00
2409;DHT22;8463;48.094;7.970;2024-01-27T11:22:37;9.20;1.00
2409;DHT22;8463;48.094;7.970;2024-01-27T11:27:39;9.50;1.00
2409;DHT22;8463;48.094;7.970;2024-01-27T11:30:06;9.60;1.00
2409;DHT22;8463;48.094;7.970;2024-01-27T11:32:32;9.80;1.00
2409;DHT22;8463;48.094;7.970;2024-01-27T11:35:01;9.90;1.00
2409;DHT22;8463;48.094;7.970;2024-01-27T11:37:30;10.00;1.00
2409;DHT22;8463;48.094;7.970;2024-01-27T11:40:06;10.20;1.00
2409;DHT22;8463;48.094;7.970;2024-01-27T11:42:32;10.40;1.00
2409;DHT22;8463;48.094;7.970;2024-01-27T11:44:58;10.20;1.00
2409;DHT22;8463;48.094;7.970;2024-01-27T11:47:26;10.20;1.00
2409;DHT22;8463;48.094;7.970;2024-01-27T11:49:53;10.40;1.00
2409;DHT22;8463;48.094;7.970;2024-01-27T11:52:19;10.60;1.00
2409;DHT22;8463;48.094;7.970;2024-01-27T11:54:45;10.70;1.00
2409;DHT22;8463;48.094;7.970;2024-01-27T11:57:13;10.90;1.00
2409;DHT22;8463;48.094;7.970;2024-01-27T11:59:39;11.00;1.00
2409;DHT22;8463;48.094;7.970;2024-01-27T12:02:05;11.10;1.00
2409;DHT22;8463;48.094;7.970;2024-01-27T12:04:31;11.20;1.00
2409;DHT22;8463;48.094;7.970;2024-01-27T12:06:57;11.30;1.00
2409;DHT22;8463;48.094;7.970;2024-01-27T12:09:22;11.40;1.00
2409;DHT22;8463;48.094;7.970;2024-01-27T12:11:48;11.40;1.00
2409;DHT22;8463;48.094;7.970;2024-01-27T12:14:14;11.40;1.00
2409;DHT22;8463;48.094;7.970;2024-01-27T12:16:40;11.40;1.00
2409;DHT22;8463;48.094;7.970;2024-01-27T12:19:10;11.50;1.00
2409;DHT22;8463;48.094;7.970;2024-01-27T12:21:36;11.60;1.00
2409;DHT22;8463;48.094;7.970;2024-01-27T12:24:02;11.70;1.00
2409;DHT22;8463;48.094;7.970;2024-01-27T12:26:29;11.70;1.00
2409;DHT22;8463;48.094;7.970;2024-01-27T12:28:58;11.90;1.00
2409;DHT22;8463;48.094;7.970;2024-01-27T12:31:24;11.90;1.00
2409;DHT22;8463;48.094;7.970;2024-01-27T12:33:54;12.00;1.00
2409;DHT22;8463;48.094;7.970;2024-01-27T12:36:23;11.90;1.00
2409;DHT22;8463;48.094;7.970;2024-01-27T12:38:58;11.70;1.00
2409;DHT22;8463;48.094;7.970;2024-01-27T12:41:28;11.30;1.00
2409;DHT22;8463;48.094;7.970;2024-01-27T12:43:55;10.60;1.00
2409;DHT22;8463;48.094;7.970;2024-01-27T12:46:21;10.30;1.00
2409;DHT22;8463;48.094;7.970;2024-01-27T12:48:47;10.20;1.00
2409;DHT22;8463;48.094;7.970;2024-01-27T12:51:12;10.10;1.00
2409;DHT22;8463;48.094;7.970;2024-01-27T12:53:40;9.90;1.00
2409;DHT22;8463;48.094;7.970;2024-01-27T12:56:11;9.80;1.00
2409;DHT22;8463;48.094;7.970;2024-01-27T12:58:41;9.60;1.00
2409;DHT22;8463;48.094;7.970;2024-01-27T13:01:08;9.80;1.00
2409;DHT22;8463;48.094;7.970;2024-01-27T13:03:34;9.90;1.00
2409;DHT22;8463;48.094;7.970;2024-01-27T13:06:00;10.10;1.00
2409;DHT22;8463;48.094;7.970;2024-01-27T13:08:26;10.20;1.00
2409;DHT22;8463;48.094;7.970;2024-01-27T13:10:52;10.10;1.00
2409;DHT22;8463;48.094;7.970;2024-01-27T13:13:18;10.20;1.00
2409;DHT22;8463;48.094;7.970;2024-01-27T13:15:44;10.40;1.00
2409;DHT22;8463;48.094;7.970;2024-01-27T13:18:10;10.70;1.00
2409;DHT22;8463;48.094;7.970;2024-01-27T13:20:36;10.70;1.00
2409;DHT22;8463;48.094;7.970;2024-01-27T13:23:02;10.40;1.00
2409;DHT22;8463;48.094;7.970;2024-01-27T13:25:28;10.20;1.00
2409;DHT22;8463;48.094;7.970;2024-01-27T13:27:54;10.10;1.00
2409;DHT22;8463;48.094;7.970;2024-01-27T13:30:21;10.20;1.00
2409;DHT22;8463;48.094;7.970;2024-01-27T13:32:47;10.20;1.00
2409;DHT22;8463;48.094;7.970;2024-01-27T13:35:12;10.20;1.00
2409;DHT22;8463;48.094;7.970;2024-01-27T13:37:38;10.30;1.00
2409;DHT22;8463;48.094;7.970;2024-01-27T13:40:05;10.30;1.00
2409;DHT22;8463;48.094;7.970;2024-01-27T13:42:34;10.20;1.00
2409;DHT22;8463;48.094;7.970;2024-01-27T13:45:00;10.10;1.00
2409;DHT22;8463;48.094;7.970;2024-01-27T13:47:25;10.20;1.00
2409;DHT22;8463;48.094;7.970;2024-01-27T13:49:51;10.20;1.00
2409;DHT22;8463;48.094;7.970;2024-01-27T13:52:20;10.40;1.00
2409;DHT22;8463;48.094;7.970;2024-01-27T13:54:45;10.40;1.00
2409;DHT22;8463;48.094;7.970;2024-01-27T13:57:11;10.40;1.00
2409;DHT22;8463;48.094;7.970;2024-01-27T13:59:37;10.40;1.00
2409;DHT22;8463;48.094;7.970;2024-01-27T14:02:03;10.30;1.00
2409;DHT22;8463;48.094;7.970;2024-01-27T14:04:29;10.30;1.00
2409;DHT22;8463;48.094;7.970;2024-01-27T14:06:55;10.10;1.00
2409;DHT22;8463;48.094;7.970;2024-01-27T14:09:22;10.00;1.00
2409;DHT22;8463;48.094;7.970;2024-01-27T14:11:48;9.90;1.00
2409;DHT22;8463;48.094;7.970;2024-01-27T14:14:13;9.90;1.00
2409;DHT22;8463;48.094;7.970;2024-01-27T14:16:39;9.80;1.00
2409;DHT22;8463;48.094;7.970;2024-01-27T14:19:05;9.70;1.00
2409;DHT22;8463;48.094;7.970;2024-01-27T14:21:32;9.50;1.00
2409;DHT22;8463;48.094;7.970;2024-01-27T14:23:57;9.40;1.00
2409;DHT22;8463;48.094;7.970;2024-01-27T14:26:28;9.40;1.00
2409;DHT22;8463;48.094;7.970;2024-01-27T14:28:54;9.50;1.00
2409;DHT22;8463;48.094;7.970;2024-01-27T14:31:20;9.60;1.00
2409;DHT22;8463;48.094;7.970;2024-01-27T14:33:46;9.50;1.00
2409;DHT22;8463;48.094;7.970;2024-01-27T14:36:12;9.40;1.00
2409;DHT22;8463;48.094;7.970;2024-01-27T14:38:38;9.30;1.00
2409;DHT22;8463;48.094;7.970;2024-01-27T14:41:04;9.10;1.00
2409;DHT22;8463;48.094;7.970;2024-01-27T14:43:30;9.00;1.00
2409;DHT22;8463;48.094;7.970;2024-01-27T14:45:56;8.90;1.00
2409;DHT22;8463;48.094;7.970;2024-01-27T14:48:22;8.70;1.00
2409;DHT22;8463;48.094;7.970;2024-01-27T14:50:47;8.50;1.00
2409;DHT22;8463;48.094;7.970;2024-01-27T14:53:20;8.40;1.00
2409;DHT22;8463;48.094;7.970;2024-01-27T14:55:48;8.30;1.00
2409;DHT22;8463;48.094;7.970;2024-01-27T14:58:14;8.30;1.00
2409;DHT22;8463;48.094;7.970;2024-01-27T15:00:40;8.30;1.00
2409;DHT22;8463;48.094;7.970;2024-01-27T15:03:06;8.10;1.00
2409;DHT22;8463;48.094;7.970;2024-01-27T15:05:31;7.90;1.00
2409;DHT22;8463;48.094;7.970;2024-01-27T15:08:02;7.80;1.00
2409;DHT22;8463;48.094;7.970;2024-01-27T15:10:27;7.70;1.00
2409;DHT22;8463;48.094;7.970;2024-01-27T15:12:53;7.60;1.00
2409;DHT22;8463;48.094;7.970;2024-01-27T15:15:19;7.60;1.00
2409;DHT22;8463;48.094;7.970;2024-01-27T15:17:44;7.50;1.00
2409;DHT22;8463;48.094;7.970;2024-01-27T15:20:10;7.40;1.00
2409;DHT22;8463;48.094;7.970;2024-01-27T15:22:37;7.20;1.00
2409;DHT22;8463;48.094;7.970;2024-01-27T15:25:04;7.20;1.00
2409;DHT22;8463;48.094;7.970;2024-01-27T15:27:30;7.20;1.00
2409;DHT22;8463;48.094;7.970;2024-01-27T15:29:56;7.30;1.00
2409;DHT22;8463;48.094;7.970;2024-01-27T15:32:22;7.20;1.00
2409;DHT22;8463;48.094;7.970;2024-01-27T15:34:49;7.00;1.00
2409;DHT22;8463;48.094;7.970;2024-01-27T15:37:16;7.00;1.00
2409;DHT22;8463;48.094;7.970;2024-01-27T15:39:42;6.90;1.00
2409;DHT22;8463;48.094;7.970;2024-01-27T15:42:09;7.00;1.00
2409;DHT22;8463;48.094;7.970;2024-01-27T15:44:35;7.00;1.00
2409;DHT22;8463;48.094;7.970;2024-01-27T15:47:00;6.90;1.00
2409;DHT22;8463;48.094;7.970;2024-01-27T15:49:27;6.80;1.00
2409;DHT22;8463;48.094;7.970;2024-01-27T15:51:52;6.80;1.00
2409;DHT22;8463;48.094;7.970;2024-01-27T15:54:19;6.80;1.00
2409;DHT22;8463;48.094;7.970;2024-01-27T15:56:45;6.80;1.00
2409;DHT22;8463;48.094;7.970;2024-01-27T15:59:15;6.80;1.00
2409;DHT22;8463;48.094;7.970;2024-01-27T16:01:40;6.80;1.00
2409;DHT22;8463;48.094;7.970;2024-01-27T16:04:06;6.80;1.00
2409;DHT22;8463;48.094;7.970;2024-01-27T16:06:32;6.50;1.00
2409;DHT22;8463;48.094;7.970;2024-01-27T16:08:58;6.50;1.00
2409;DHT22;8463;48.094;7.970;2024-01-27T16:11:23;6.50;1.00
2409;DHT22;8463;48.094;7.970;2024-01-27T16:13:49;6.50;1.00
2409;DHT22;8463;48.094;7.970;2024-01-27T16:16:15;6.50;1.00
2409;DHT22;8463;48.094;7.970;2024-01-27T16:18:47;6.60;1.00
2409;DHT22;8463;48.094;7.970;2024-01-27T16:21:12;6.50;1.00
2409;DHT22;8463;48.094;7.970;2024-01-27T16:23:38;6.60;1.00
2409;DHT22;8463;48.094;7.970;2024-01-27T16:26:04;6.50;1.00
2409;DHT22;8463;48.094;7.970;2024-01-27T16:28:29;6.60;1.00